Warning: file_get_contents(/server/czul.ca/includes/../prompts/prompts.aboutus.json): failed to open stream: No such file or directory in /server/czul.ca/includes/prompts.inc.php on line 8

Warning: Invalid argument supplied for foreach() in /server/czul.ca/includes/prompts.inc.php on line 9

Warning: file_get_contents(/server/czul.ca/includes/../prompts/prompts.aboutus.json): failed to open stream: No such file or directory in /server/czul.ca/includes/prompts.inc.php on line 8

Warning: Invalid argument supplied for foreach() in /server/czul.ca/includes/prompts.inc.php on line 9

Warning: file_get_contents(/server/czul.ca/includes/../prompts/prompts.aboutus.json): failed to open stream: No such file or directory in /server/czul.ca/includes/prompts.inc.php on line 8

Warning: Invalid argument supplied for foreach() in /server/czul.ca/includes/prompts.inc.php on line 9
CZUL - FIR virtuelle de Montréal

CYMT

Chapais Airport

{{ICAO_CODE}} CYMT
{{IATA_CODE}} YMT
{{NAME}} Chapais Airport
{{LOCATION}} Chibougamau, Quebec, CA
{{ELEVATION}} 1270 {{FEET}} / 387.1 {{METERS}}
{{LATITUDE}} 49.77194444
{{LONGITUDE}} -74.52805556
{{METAR}} CYMT 171034Z AUTO 33020G35KT 7SM RA FEW009 SCT015 BKN036 OVC045 08/07 A2936 RMK SLP956 DENSITY ALT 1400FT
{{EXTRA_INFO}} {{DISPLAY_NOTAMS}}
{{DISPLAY_CHARTS}}
{{RUNWAY}} {{LENGTH}} {{WIDTH}} {{SURFACE}} {{ELEVATION}}
04 6495 ft 150 ft ASP 1262 ft
22 6495 ft 150 ft ASP 1270 ft